createdAt,value
2023-03-05T00:01:52.845Z,20.40
2023-03-05T00:04:22.227Z,15.60
2023-03-05T00:06:51.626Z,19.40
2023-03-05T00:09:20.205Z,14.80
2023-03-05T00:11:49.638Z,17.40
2023-03-05T00:14:18.897Z,16.30
2023-03-05T00:16:48.540Z,18.30
2023-03-05T00:19:17.782Z,12.40
2023-03-05T00:21:47.237Z,20.50
2023-03-05T00:24:19.056Z,18.60
2023-03-05T00:26:48.516Z,18.10
2023-03-05T00:29:22.081Z,16.60
2023-03-05T00:31:51.539Z,21.20
2023-03-05T00:34:21.384Z,15.70
2023-03-05T00:36:53.048Z,25.30
2023-03-05T00:39:23.215Z,26.40
2023-03-05T00:41:53.978Z,16.70
2023-03-05T00:44:25.697Z,17.30
2023-03-05T00:46:54.998Z,18.70
2023-03-05T00:49:24.504Z,15.40
2023-03-05T00:51:54.141Z,18.10
2023-03-05T00:54:24.080Z,20.30
2023-03-05T00:56:53.825Z,16.60
2023-03-05T00:59:23.227Z,20.60
2023-03-05T04:01:51.509Z,13.20
2023-03-05T04:04:21.171Z,8.60
2023-03-05T04:06:51.052Z,9.00
2023-03-05T04:09:20.035Z,10.90
2023-03-05T04:11:51.467Z,8.90
2023-03-05T04:14:20.747Z,10.90
2023-03-05T04:16:50.290Z,9.20
2023-03-05T04:19:19.321Z,11.10
2023-03-05T04:21:50.463Z,9.00
2023-03-05T04:24:19.767Z,8.70
2023-03-05T04:26:48.996Z,10.80
2023-03-05T04:29:19.083Z,11.50
2023-03-05T04:31:48.509Z,12.40
2023-03-05T04:34:18.055Z,14.30
2023-03-05T04:36:47.712Z,9.80
2023-03-05T04:39:18.011Z,10.90
2023-03-05T04:41:48.694Z,11.10
2023-03-05T04:44:18.776Z,11.60
2023-03-05T04:46:48.193Z,13.40
2023-03-05T04:49:17.170Z,11.90
2023-03-05T04:51:46.500Z,15.30
2023-03-05T04:54:15.988Z,12.60
2023-03-05T04:56:45.251Z,15.40
2023-03-05T04:59:17.129Z,13.40
2023-03-05T05:01:45.930Z,13.60
2023-03-05T05:04:15.894Z,24.20
2023-03-05T05:06:45.345Z,16.00
2023-03-05T05:09:15.386Z,15.70
2023-03-05T05:11:43.950Z,12.90
2023-03-05T05:14:13.321Z,12.10
2023-03-05T05:16:41.987Z,10.40
2023-03-05T05:19:11.203Z,9.40
2023-03-05T05:21:40.763Z,9.90
2023-03-05T05:24:09.980Z,10.50
2023-03-05T05:26:39.280Z,8.20
2023-03-05T05:29:08.466Z,13.10
2023-03-05T05:31:37.987Z,12.90
2023-03-05T05:34:07.351Z,7.50
2023-03-05T05:36:36.313Z,9.20
2023-03-05T05:39:05.848Z,19.80
2023-03-05T05:41:35.277Z,11.20
2023-03-05T05:44:04.720Z,10.60
2023-03-05T05:46:34.657Z,14.00
2023-03-05T05:49:04.642Z,12.00
2023-03-05T05:51:33.761Z,12.90
2023-03-05T05:54:03.083Z,13.50
2023-03-05T05:56:32.213Z,22.90
2023-03-05T05:59:01.644Z,19.70
2023-03-05T06:01:35.064Z,20.00
2023-03-05T06:04:04.585Z,16.30
2023-03-05T06:06:35.237Z,18.80
2023-03-05T06:09:05.713Z,31.60
2023-03-05T06:11:35.581Z,23.60
2023-03-05T06:14:05.472Z,20.30
2023-03-05T06:16:35.569Z,17.80
2023-03-05T06:19:05.261Z,20.70
2023-03-05T06:21:34.996Z,31.90
2023-03-05T06:24:05.213Z,24.80
2023-03-05T06:26:34.439Z,22.70
2023-03-05T06:29:04.269Z,22.50
2023-03-05T06:31:35.586Z,26.60
2023-03-05T06:34:06.909Z,24.40
2023-03-05T06:36:36.094Z,25.40
2023-03-05T06:39:05.814Z,84.30
2023-03-05T06:41:35.374Z,53.60
2023-03-05T06:44:04.577Z,34.50
2023-03-05T06:46:37.869Z,26.50
2023-03-05T06:49:09.197Z,17.50
2023-03-05T06:51:40.386Z,11.30
2023-03-05T06:54:12.206Z,9.00
2023-03-05T06:56:43.447Z,11.70
2023-03-05T06:59:14.969Z,15.50
2023-03-05T07:01:45.684Z,12.70
2023-03-05T07:04:15.864Z,16.20
2023-03-05T07:06:45.735Z,9.70
2023-03-05T07:09:16.570Z,9.40
2023-03-05T07:11:45.925Z,11.60
2023-03-05T07:14:15.251Z,13.30
2023-03-05T07:16:43.631Z,10.50
2023-03-05T07:19:12.873Z,14.70
2023-03-05T07:21:42.285Z,15.60
2023-03-05T07:24:13.161Z,14.70
2023-03-05T07:26:41.815Z,20.40
2023-03-05T07:29:11.682Z,14.50
2023-03-05T07:31:40.506Z,11.60
2023-03-05T07:34:11.073Z,12.50
2023-03-05T07:36:40.845Z,16.30
2023-03-05T07:39:12.030Z,20.20
2023-03-05T07:41:41.194Z,34.20
2023-03-05T07:44:10.459Z,33.30
2023-03-05T07:46:39.998Z,35.50
2023-03-05T07:49:08.433Z,48.50
2023-03-05T07:51:37.374Z,67.90
2023-03-05T07:54:06.399Z,43.10
2023-03-05T07:56:36.528Z,60.90
2023-03-05T07:59:08.300Z,80.00
2023-03-05T08:01:38.426Z,66.80
2023-03-05T08:04:11.269Z,76.00
2023-03-05T08:06:42.236Z,105.60
2023-03-05T08:09:11.324Z,81.60
2023-03-05T08:11:40.697Z,94.30
2023-03-05T08:14:10.245Z,76.50
2023-03-05T08:16:40.371Z,68.20
2023-03-05T08:19:11.024Z,60.80
2023-03-05T08:21:40.182Z,71.90
2023-03-05T08:24:11.378Z,60.10
2023-03-05T08:26:41.735Z,44.00
2023-03-05T08:29:11.819Z,44.30
2023-03-05T08:31:40.832Z,64.50
2023-03-05T08:34:09.664Z,59.10
2023-03-05T08:36:38.559Z,79.20
2023-03-05T08:39:08.769Z,75.00
2023-03-05T08:41:38.216Z,54.00
2023-03-05T08:44:07.779Z,76.60
2023-03-05T08:46:39.399Z,74.90
2023-03-05T08:49:08.954Z,46.00
2023-03-05T08:51:38.290Z,65.30
2023-03-05T08:54:09.092Z,127.40
2023-03-05T08:56:38.349Z,150.80
2023-03-05T08:59:07.162Z,103.50
2023-03-05T09:01:36.380Z,112.00
2023-03-05T09:04:06.281Z,113.90
2023-03-05T09:06:39.984Z,71.00
2023-03-05T09:11:38.833Z,43.30
2023-03-05T09:14:09.037Z,17.60
2023-03-05T09:16:41.064Z,10.70
2023-03-05T09:19:13.785Z,12.60
2023-03-05T09:21:43.581Z,63.00
2023-03-05T09:24:13.449Z,40.10
2023-03-05T09:26:42.631Z,48.00
2023-03-05T09:29:12.796Z,40.00
2023-03-05T09:31:44.211Z,26.10
2023-03-05T09:34:13.789Z,21.80
2023-03-05T09:36:42.766Z,16.00
2023-03-05T09:39:12.062Z,17.80
2023-03-05T09:42:28.587Z,19.60
2023-03-05T09:45:19.929Z,12.80
2023-03-05T09:48:10.275Z,20.40
2023-03-05T09:50:51.514Z,23.80
2023-03-05T09:53:28.962Z,14.20
2023-03-05T09:56:14.530Z,17.60
2023-03-05T09:58:49.238Z,17.60
2023-03-05T10:01:43.661Z,29.40
2023-03-05T10:06:56.629Z,23.80
2023-03-05T10:09:29.006Z,16.90
2023-03-05T10:12:03.679Z,28.70
2023-03-05T10:14:40.060Z,33.40
2023-03-05T10:17:37.516Z,16.00
2023-03-05T10:20:32.689Z,16.70
2023-03-05T10:23:29.745Z,18.70
2023-03-05T10:26:27.753Z,14.70
2023-03-05T10:29:31.466Z,19.70
2023-03-05T10:32:42.268Z,14.60
2023-03-05T10:35:30.215Z,19.00
2023-03-05T10:38:17.599Z,9.70
2023-03-05T10:40:55.780Z,12.30
2023-03-05T10:43:42.131Z,21.90
2023-03-05T10:46:17.286Z,11.10
2023-03-05T10:48:52.897Z,21.60
2023-03-05T10:51:45.305Z,13.10
2023-03-05T10:54:32.474Z,9.00
2023-03-05T10:57:33.852Z,12.70
2023-03-05T11:00:23.004Z,12.60
2023-03-05T11:03:01.903Z,16.10
2023-03-05T11:05:39.509Z,11.40
2023-03-05T11:08:34.806Z,11.90
2023-03-05T11:11:09.286Z,18.00
2023-03-05T11:14:05.973Z,9.60
2023-03-05T11:16:47.595Z,19.30
2023-03-05T11:19:19.969Z,21.80
2023-03-05T11:22:09.991Z,20.40
2023-03-05T11:24:39.525Z,15.70
2023-03-05T11:27:31.082Z,11.60
2023-03-05T11:30:00.429Z,12.10
2023-03-05T11:32:30.582Z,24.40
2023-03-05T11:34:59.776Z,23.30
2023-03-05T11:37:31.909Z,19.70
2023-03-05T11:40:21.888Z,24.20
2023-03-05T11:42:57.429Z,28.30
2023-03-05T11:45:28.842Z,30.60
2023-03-05T11:48:20.936Z,23.30
2023-03-05T11:50:55.587Z,47.50
2023-03-05T11:53:29.525Z,57.80
2023-03-05T11:58:41.315Z,26.50
2023-03-05T12:01:19.160Z,26.90
2023-03-05T12:03:49.436Z,25.40
2023-03-05T12:06:21.142Z,25.00
2023-03-05T12:08:57.818Z,21.60
2023-03-05T12:11:31.087Z,22.30
2023-03-05T12:14:22.054Z,24.30
2023-03-05T12:17:17.777Z,24.60
2023-03-05T12:20:06.768Z,27.30
2023-03-05T12:22:39.690Z,42.40
2023-03-05T12:25:32.360Z,49.00
2023-03-05T12:28:02.588Z,87.80
2023-03-05T12:30:35.079Z,64.20
2023-03-05T12:33:08.520Z,31.10
2023-03-05T12:35:39.872Z,26.10
2023-03-05T12:38:30.444Z,25.60
2023-03-05T12:41:27.414Z,15.80
2023-03-05T12:44:06.678Z,13.90
2023-03-05T12:46:40.901Z,19.30
2023-03-05T12:49:19.417Z,19.50
2023-03-05T12:51:51.948Z,16.10
2023-03-05T12:54:42.485Z,13.10
2023-03-05T12:57:25.201Z,14.30
2023-03-05T13:00:12.020Z,8.80
2023-03-05T13:02:47.065Z,27.70
2023-03-05T13:05:24.770Z,47.20
2023-03-05T13:08:09.873Z,24.20
2023-03-05T13:10:40.655Z,18.00
2023-03-05T13:13:17.272Z,33.30
2023-03-05T13:15:49.843Z,22.70
2023-03-05T13:18:26.886Z,18.80
2023-03-05T13:21:15.516Z,35.70
2023-03-05T13:23:58.865Z,24.30
2023-03-05T13:26:38.417Z,31.90
2023-03-05T13:29:16.171Z,16.30
2023-03-05T13:32:22.673Z,21.20
2023-03-05T13:34:54.837Z,33.30
2023-03-05T13:37:34.110Z,13.80
2023-03-05T13:40:20.656Z,19.30
2023-03-05T13:42:50.805Z,16.10
2023-03-05T13:45:23.684Z,9.00
2023-03-05T13:48:03.440Z,14.80
2023-03-05T13:50:36.865Z,39.00
2023-03-05T13:53:29.024Z,27.90
2023-03-05T13:56:05.822Z,11.00
2023-03-05T13:58:54.055Z,18.20
2023-03-05T14:01:48.670Z,15.80
2023-03-05T14:07:08.610Z,21.20
2023-03-05T14:09:38.460Z,13.90
2023-03-05T14:12:33.068Z,8.80
2023-03-05T14:15:03.717Z,21.30
2023-03-05T14:17:42.208Z,13.00
2023-03-05T14:20:14.810Z,6.50
2023-03-05T14:22:48.998Z,6.00
2023-03-05T14:25:35.370Z,4.70
2023-03-05T14:28:29.180Z,12.10
2023-03-05T14:30:58.826Z,21.00
2023-03-05T14:33:33.639Z,18.60
2023-03-05T14:36:12.246Z,21.60
2023-03-05T14:38:43.607Z,28.10
2023-03-05T14:41:31.038Z,17.20
2023-03-05T14:44:00.634Z,12.00
2023-03-05T14:46:30.579Z,6.90
2023-03-05T14:49:00.390Z,12.30
2023-03-05T14:51:30.167Z,10.40
2023-03-05T14:53:59.697Z,10.50
2023-03-05T14:56:30.185Z,15.80
2023-03-05T14:58:59.984Z,41.40
2023-03-05T15:01:29.488Z,42.20
2023-03-05T15:03:59.636Z,21.10
2023-03-05T15:06:35.416Z,16.60
2023-03-05T15:09:06.256Z,17.80
2023-03-05T15:11:36.424Z,41.70
2023-03-05T15:14:06.092Z,26.70
2023-03-05T15:16:35.210Z,39.50
2023-03-05T15:19:04.218Z,31.70
2023-03-05T15:21:35.797Z,27.70
2023-03-05T15:24:07.768Z,54.70
2023-03-05T15:26:38.461Z,81.80
2023-03-05T15:29:07.818Z,198.70
2023-03-05T15:31:41.326Z,247.60
2023-03-05T15:34:11.411Z,171.60
2023-03-05T15:36:41.026Z,196.80
2023-03-05T15:39:11.109Z,144.90
2023-03-05T15:41:40.632Z,154.60
2023-03-05T15:44:10.640Z,169.10
2023-03-05T15:46:40.287Z,153.30
2023-03-05T15:49:09.557Z,68.40
2023-03-05T15:51:40.095Z,39.20
2023-03-05T15:54:09.497Z,44.90
2023-03-05T15:56:39.042Z,27.70
2023-03-05T15:59:10.767Z,21.80
2023-03-05T16:01:40.144Z,17.30
2023-03-05T16:04:10.174Z,35.70
2023-03-05T16:06:39.449Z,35.30
2023-03-05T16:09:09.904Z,82.70
2023-03-05T16:11:41.637Z,106.10
2023-03-05T16:14:11.639Z,94.30
2023-03-05T16:16:41.226Z,74.30
2023-03-05T16:19:13.077Z,49.10
2023-03-05T16:21:42.654Z,66.50
2023-03-05T16:24:12.527Z,57.60
2023-03-05T16:26:42.352Z,116.20
2023-03-05T16:29:12.629Z,85.80
2023-03-05T16:31:43.666Z,70.60
2023-03-05T16:34:14.829Z,64.70
2023-03-05T16:36:53.441Z,74.40
2023-03-05T16:39:23.378Z,66.60
2023-03-05T16:41:53.179Z,72.50
2023-03-05T16:44:22.897Z,64.70
2023-03-05T16:46:54.460Z,79.80
2023-03-05T16:49:24.054Z,207.00
2023-03-05T16:51:54.017Z,181.30
2023-03-05T16:54:23.302Z,97.90
2023-03-05T16:56:52.866Z,78.40
2023-03-05T16:59:21.963Z,92.80
2023-03-05T17:01:51.283Z,101.00
2023-03-05T17:04:20.808Z,82.60
2023-03-05T17:06:50.118Z,58.40
2023-03-05T17:09:24.653Z,46.40
2023-03-05T17:11:55.773Z,73.70
2023-03-05T17:14:25.989Z,61.70
2023-03-05T17:16:55.253Z,58.40
2023-03-05T17:19:24.576Z,100.60
2023-03-05T17:21:53.866Z,122.20
2023-03-05T17:24:23.992Z,143.50
2023-03-05T17:26:53.278Z,140.90
2023-03-05T17:29:23.873Z,122.80
2023-03-05T17:31:53.969Z,97.80
2023-03-05T17:34:33.774Z,92.50
2023-03-05T17:37:06.675Z,94.20
2023-03-05T17:39:36.157Z,116.50
2023-03-05T17:42:06.219Z,109.00
2023-03-05T17:44:35.852Z,101.00
2023-03-05T17:47:05.357Z,84.90
2023-03-05T17:49:34.780Z,79.00
2023-03-05T17:52:04.499Z,65.30
2023-03-05T17:54:34.160Z,54.60
2023-03-05T17:57:04.825Z,50.20
2023-03-05T17:59:33.293Z,56.70
2023-03-05T18:02:02.492Z,51.50
2023-03-05T18:04:31.146Z,40.40
2023-03-05T18:06:59.668Z,52.50
2023-03-05T18:09:27.887Z,44.10
2023-03-05T18:11:56.423Z,37.00
2023-03-05T18:14:24.750Z,27.30
2023-03-05T18:16:53.401Z,27.10
2023-03-05T18:19:21.986Z,56.00
2023-03-05T18:21:50.920Z,28.70
2023-03-05T18:24:19.245Z,35.10
2023-03-05T18:26:47.534Z,33.00
2023-03-05T18:29:17.637Z,32.90
2023-03-05T18:31:47.105Z,22.40
2023-03-05T18:34:15.747Z,19.80
2023-03-05T18:36:44.268Z,24.00
2023-03-05T18:39:13.357Z,74.70
2023-03-05T18:41:42.433Z,54.90
2023-03-05T18:44:11.543Z,62.10
2023-03-05T18:46:40.659Z,79.20
2023-03-05T18:49:12.073Z,78.20
2023-03-05T18:51:41.921Z,96.40
2023-03-05T18:54:10.261Z,206.00
2023-03-05T18:56:38.834Z,90.70
2023-03-05T18:59:07.655Z,65.40
2023-03-05T19:01:36.066Z,86.60
2023-03-05T19:04:05.649Z,67.20
2023-03-05T19:06:35.756Z,91.30
2023-03-05T19:09:10.974Z,105.10
2023-03-05T19:11:39.197Z,162.80
2023-03-05T19:14:07.423Z,140.20
2023-03-05T19:16:43.521Z,99.20
2023-03-05T19:19:20.463Z,211.90
2023-03-05T19:21:53.659Z,131.80
2023-03-05T19:24:23.837Z,105.00
2023-03-05T19:26:55.503Z,161.40
2023-03-05T19:29:26.474Z,153.30
2023-03-05T19:31:54.943Z,186.90
2023-03-05T19:34:23.343Z,237.70
2023-03-05T19:36:51.619Z,232.10
2023-03-05T19:39:20.060Z,188.90
2023-03-05T19:41:48.725Z,163.40
2023-03-05T19:44:18.771Z,120.70
2023-03-05T19:46:56.363Z,114.40
2023-03-05T19:49:25.378Z,97.20
2023-03-05T19:51:53.790Z,103.50
2023-03-05T19:54:23.343Z,98.80
2023-03-05T19:56:54.974Z,80.20
2023-03-05T19:59:23.507Z,82.60
2023-03-05T20:01:52.740Z,61.50
2023-03-05T20:04:23.793Z,73.90
2023-03-05T20:06:52.805Z,90.90
2023-03-05T20:09:21.075Z,81.60
2023-03-05T20:11:50.846Z,71.50
2023-03-05T20:14:19.167Z,64.40
2023-03-05T20:16:47.679Z,62.40
2023-03-05T20:19:17.992Z,70.90
2023-03-05T20:21:46.504Z,73.60
2023-03-05T20:24:18.727Z,74.20
2023-03-05T20:26:48.473Z,68.70
2023-03-05T20:29:18.872Z,67.30
2023-03-05T20:31:50.232Z,98.70
2023-03-05T20:34:19.791Z,152.90
2023-03-05T20:36:49.398Z,201.90
2023-03-05T20:39:27.994Z,181.00
2023-03-05T20:41:59.434Z,149.80
2023-03-05T20:44:28.991Z,105.70
2023-03-05T20:47:12.966Z,87.20
2023-03-05T20:49:42.213Z,138.80
2023-03-05T20:52:11.248Z,111.40
2023-03-05T20:54:40.301Z,509.90
2023-03-05T20:57:09.132Z,252.60
2023-03-05T20:59:37.797Z,272.60
2023-03-05T21:02:06.966Z,207.20
2023-03-05T21:04:35.359Z,136.80
2023-03-05T21:07:04.374Z,103.40
2023-03-05T21:09:33.418Z,102.50
2023-03-05T21:12:02.300Z,133.20
2023-03-05T21:14:37.322Z,146.20
2023-03-05T21:17:05.856Z,82.30
2023-03-05T21:19:34.479Z,78.70
2023-03-05T21:22:02.922Z,72.60
2023-03-05T21:24:42.677Z,82.00
2023-03-05T21:27:10.985Z,104.30
2023-03-05T21:29:39.205Z,109.90
2023-03-05T21:32:07.832Z,121.70
2023-03-05T21:34:36.067Z,95.30
2023-03-05T21:37:04.318Z,87.70
2023-03-05T21:39:32.942Z,99.90
2023-03-05T21:42:01.847Z,82.40
2023-03-05T21:44:30.059Z,83.70
2023-03-05T21:46:58.327Z,80.30
2023-03-05T21:49:26.740Z,85.20
2023-03-05T21:52:09.408Z,109.90
2023-03-05T21:54:42.747Z,124.60
2023-03-05T21:57:12.442Z,107.00
2023-03-05T21:59:42.951Z,92.10
2023-03-05T22:02:14.338Z,153.10
2023-03-05T22:04:43.594Z,385.70
2023-03-05T22:07:12.914Z,156.30
2023-03-05T22:09:41.822Z,161.80
2023-03-05T22:12:15.261Z,198.60
2023-03-05T22:14:46.413Z,140.20
2023-03-05T22:17:15.293Z,174.40
2023-03-05T22:19:44.154Z,198.00
2023-03-05T22:22:12.582Z,188.80
2023-03-05T22:24:41.227Z,167.80
2023-03-05T22:27:09.989Z,118.30
2023-03-05T22:29:39.104Z,91.30
2023-03-05T22:32:08.047Z,92.80
2023-03-05T22:34:37.943Z,102.70
2023-03-05T22:37:06.662Z,96.30
2023-03-05T22:39:35.794Z,89.50
2023-03-05T22:42:05.760Z,82.60
2023-03-05T22:44:34.919Z,73.20
2023-03-05T22:47:03.419Z,68.40
2023-03-05T22:49:33.297Z,65.00
2023-03-05T22:52:02.631Z,82.00
2023-03-05T22:54:31.891Z,63.40
2023-03-05T22:57:00.909Z,62.80
2023-03-05T22:59:29.831Z,56.50
2023-03-05T23:01:58.323Z,48.20
2023-03-05T23:04:40.396Z,45.50
2023-03-05T23:07:08.894Z,55.80
2023-03-05T23:09:38.364Z,88.10
2023-03-05T23:12:07.323Z,84.70
2023-03-05T23:14:35.834Z,71.60
2023-03-05T23:17:04.927Z,69.20
2023-03-05T23:19:39.600Z,65.00
2023-03-05T23:22:11.032Z,55.60
2023-03-05T23:24:42.049Z,57.40
2023-03-05T23:27:15.917Z,59.60
2023-03-05T23:32:58.193Z,49.40
2023-03-05T23:35:29.833Z,48.30
2023-03-05T23:38:00.391Z,39.50
2023-03-05T23:40:36.919Z,39.00
2023-03-05T23:43:05.826Z,69.70
2023-03-05T23:45:35.298Z,52.90
2023-03-05T23:48:04.694Z,45.50
2023-03-05T23:50:36.541Z,35.70
2023-03-05T23:53:06.640Z,37.10
2023-03-05T23:55:46.226Z,35.00
2023-03-05T23:58:15.814Z,31.50
